createdAt,value
2017-08-01T00:02:14.595Z,10.83
2017-08-01T00:04:42.687Z,11.10
2017-08-01T00:07:10.778Z,10.07
2017-08-01T00:09:38.868Z,9.57
2017-08-01T00:12:06.960Z,8.40
2017-08-01T00:14:35.040Z,8.67
2017-08-01T00:17:03.116Z,8.27
2017-08-01T00:19:31.201Z,7.00
2017-08-01T00:21:59.282Z,6.97
2017-08-01T00:24:27.438Z,6.57
2017-08-01T00:26:55.509Z,6.77
2017-08-01T00:29:23.591Z,6.80
2017-08-01T00:31:51.687Z,7.33
2017-08-01T00:34:19.785Z,7.07
2017-08-01T00:36:47.865Z,5.50
2017-08-01T00:39:15.938Z,7.07
2017-08-01T00:41:44.014Z,6.97
2017-08-01T00:44:12.095Z,6.90
2017-08-01T00:46:40.184Z,5.30
2017-08-01T00:49:08.284Z,6.57
2017-08-01T00:51:36.355Z,6.17
2017-08-01T00:54:04.463Z,6.73
2017-08-01T00:56:32.551Z,6.13
2017-08-01T00:59:00.635Z,6.40
2017-08-01T01:01:28.716Z,6.33
2017-08-01T01:03:56.794Z,6.10
2017-08-01T01:06:24.878Z,5.80
2017-08-01T01:08:52.964Z,6.00
2017-08-01T01:11:21.047Z,6.50
2017-08-01T01:13:49.125Z,7.40
2017-08-01T01:16:17.198Z,6.30
2017-08-01T01:18:45.278Z,6.83
2017-08-01T01:21:13.372Z,6.70
2017-08-01T01:23:41.498Z,6.60
2017-08-01T01:26:09.575Z,6.70
2017-08-01T01:28:37.661Z,6.70
2017-08-01T01:31:05.743Z,5.50
2017-08-01T01:33:33.827Z,5.80
2017-08-01T01:36:01.920Z,5.77
2017-08-01T01:38:30.003Z,6.23
2017-08-01T01:40:58.079Z,5.60
2017-08-01T01:43:26.210Z,6.00
2017-08-01T01:45:54.399Z,5.40
2017-08-01T01:48:22.495Z,5.57
2017-08-01T01:50:50.586Z,5.37
2017-08-01T01:53:18.808Z,6.30
2017-08-01T01:55:46.958Z,5.33
2017-08-01T01:58:15.036Z,6.57
2017-08-01T02:00:43.129Z,5.27
2017-08-01T02:03:11.191Z,6.23
2017-08-01T02:05:39.283Z,6.90
2017-08-01T02:08:07.367Z,5.43
2017-08-01T02:10:35.456Z,6.87
2017-08-01T02:13:03.554Z,6.40
2017-08-01T02:15:31.644Z,6.20
2017-08-01T02:17:59.711Z,6.00
2017-08-01T02:20:27.794Z,6.20
2017-08-01T02:22:55.871Z,6.00
2017-08-01T02:25:23.951Z,6.40
2017-08-01T02:27:52.037Z,5.50
2017-08-01T02:30:20.119Z,5.90
2017-08-01T02:32:48.208Z,5.57
2017-08-01T02:35:16.296Z,5.60
2017-08-01T02:37:44.389Z,6.50
2017-08-01T02:40:12.468Z,6.13
2017-08-01T02:42:40.573Z,6.10
2017-08-01T02:45:08.639Z,6.10
2017-08-01T02:47:36.724Z,6.20
2017-08-01T02:50:04.815Z,5.90
2017-08-01T02:52:32.908Z,5.23
2017-08-01T02:55:00.984Z,5.70
2017-08-01T02:57:29.055Z,6.37
2017-08-01T02:59:57.133Z,6.03
2017-08-01T03:02:25.226Z,5.63
2017-08-01T03:04:53.395Z,5.73
2017-08-01T03:07:21.472Z,5.87
2017-08-01T03:09:49.561Z,6.50
2017-08-01T03:12:17.634Z,7.37
2017-08-01T03:14:45.735Z,6.60
2017-08-01T03:17:14.031Z,7.97
2017-08-01T03:19:42.098Z,8.30
2017-08-01T03:22:10.178Z,7.10
2017-08-01T03:24:38.383Z,6.83
2017-08-01T03:27:06.473Z,7.97
2017-08-01T03:29:34.544Z,8.27
2017-08-01T03:32:02.619Z,10.00
2017-08-01T03:34:30.701Z,8.47
2017-08-01T03:36:58.776Z,9.20
2017-08-01T03:39:26.847Z,8.20
2017-08-01T03:41:54.934Z,8.00
2017-08-01T03:44:23.003Z,7.93
2017-08-01T03:46:51.090Z,8.37
2017-08-01T03:49:19.175Z,8.07
2017-08-01T03:51:47.266Z,8.20
2017-08-01T03:54:15.421Z,7.73
2017-08-01T03:56:43.505Z,7.20
2017-08-01T03:59:11.579Z,7.50
2017-08-01T04:01:39.647Z,7.57
2017-08-01T04:04:07.744Z,7.83
2017-08-01T04:06:35.823Z,6.80
2017-08-01T04:09:03.909Z,7.77
2017-08-01T04:11:31.985Z,7.53
2017-08-01T04:14:00.057Z,6.43
2017-08-01T04:16:28.146Z,8.40
2017-08-01T04:18:56.231Z,7.40
2017-08-01T04:21:24.312Z,7.53
2017-08-01T04:23:52.511Z,8.23
2017-08-01T04:26:20.659Z,7.83
2017-08-01T04:28:48.735Z,8.00
2017-08-01T04:31:16.828Z,8.63
2017-08-01T04:33:44.898Z,7.73
2017-08-01T04:36:12.982Z,7.20
2017-08-01T04:38:41.062Z,8.20
2017-08-01T04:41:09.143Z,7.63
2017-08-01T04:43:37.224Z,8.00
2017-08-01T04:46:05.315Z,7.87
2017-08-01T04:48:33.398Z,7.50
2017-08-01T04:51:01.496Z,7.00
2017-08-01T04:53:29.559Z,6.30
2017-08-01T04:55:57.638Z,7.37
2017-08-01T04:58:25.723Z,7.67
2017-08-01T05:00:53.791Z,7.43
2017-08-01T05:03:21.879Z,7.10
2017-08-01T05:05:49.967Z,6.57
2017-08-01T05:08:18.050Z,7.40
2017-08-01T05:10:46.126Z,6.73
2017-08-01T05:13:14.216Z,7.53
2017-08-01T05:15:42.290Z,7.00
2017-08-01T05:18:10.378Z,6.87
2017-08-01T05:20:38.450Z,6.80
2017-08-01T05:23:06.532Z,6.23
2017-08-01T05:25:34.620Z,7.03
2017-08-01T05:28:02.691Z,7.30
2017-08-01T05:30:30.766Z,6.47
2017-08-01T05:32:59.193Z,6.70
2017-08-01T05:35:27.294Z,6.10
2017-08-01T05:37:55.368Z,6.40
2017-08-01T05:40:23.462Z,6.60
2017-08-01T05:42:51.544Z,6.27
2017-08-01T05:45:19.628Z,6.17
2017-08-01T05:47:47.706Z,5.33
2017-08-01T05:50:15.782Z,5.70
2017-08-01T05:52:43.859Z,5.77
2017-08-01T05:55:11.923Z,5.17
2017-08-01T05:57:40.019Z,5.20
2017-08-01T06:00:08.091Z,5.00
2017-08-01T06:02:36.166Z,5.70
2017-08-01T06:05:04.246Z,4.97
2017-08-01T06:07:32.322Z,5.37
2017-08-01T06:10:00.391Z,5.50
2017-08-01T06:12:28.475Z,4.70
2017-08-01T06:14:56.553Z,5.00
2017-08-01T06:17:24.639Z,5.63
2017-08-01T06:19:52.710Z,5.43
2017-08-01T06:22:20.782Z,4.60
2017-08-01T06:24:48.902Z,4.50
2017-08-01T06:27:16.984Z,5.20
2017-08-01T06:29:45.059Z,5.00
2017-08-01T06:32:13.141Z,6.63
2017-08-01T06:34:41.214Z,5.07
2017-08-01T06:37:09.294Z,5.10
2017-08-01T06:39:37.386Z,5.40
2017-08-01T06:42:05.466Z,5.13
2017-08-01T06:44:33.546Z,5.23
2017-08-01T06:47:01.634Z,5.83
2017-08-01T06:49:29.718Z,5.33
2017-08-01T06:51:57.789Z,6.03
2017-08-01T06:54:25.851Z,5.30
2017-08-01T06:56:53.944Z,4.90
2017-08-01T06:59:22.027Z,5.13
2017-08-01T07:01:50.108Z,5.17
2017-08-01T07:04:18.176Z,5.03
2017-08-01T07:06:46.263Z,5.00
2017-08-01T07:09:14.328Z,5.83
2017-08-01T07:11:42.404Z,5.73
2017-08-01T07:14:10.488Z,5.13
2017-08-01T07:16:38.562Z,5.77
2017-08-01T07:19:06.637Z,4.80
2017-08-01T07:21:34.718Z,5.70
2017-08-01T07:24:02.784Z,5.07
2017-08-01T07:26:30.879Z,5.07
2017-08-01T07:28:58.949Z,6.10
2017-08-01T07:31:27.020Z,5.83
2017-08-01T07:33:55.115Z,5.53
2017-08-01T07:36:23.191Z,5.60
2017-08-01T07:38:51.271Z,5.30
2017-08-01T07:41:19.362Z,5.87
2017-08-01T07:43:47.443Z,5.77
2017-08-01T07:46:15.529Z,5.73
2017-08-01T07:48:44.499Z,5.60
2017-08-01T07:51:12.585Z,6.13
2017-08-01T07:53:40.658Z,5.83
2017-08-01T07:56:08.756Z,5.87
2017-08-01T07:58:36.831Z,5.03
2017-08-01T08:01:04.914Z,5.80
2017-08-01T08:03:32.987Z,5.40
2017-08-01T08:06:01.095Z,5.50
2017-08-01T08:08:29.191Z,6.30
2017-08-01T08:10:57.272Z,5.53
2017-08-01T08:13:25.387Z,5.50
2017-08-01T08:15:54.247Z,6.20
2017-08-01T08:18:22.319Z,5.80
2017-08-01T08:20:50.403Z,6.20
2017-08-01T08:23:18.499Z,5.77
2017-08-01T08:25:46.584Z,6.43
2017-08-01T08:28:14.650Z,6.20
2017-08-01T08:30:42.755Z,5.67
2017-08-01T08:33:10.827Z,5.60
2017-08-01T08:35:38.898Z,5.23
2017-08-01T08:38:06.980Z,5.60
2017-08-01T08:40:34.539Z,7.40
2017-08-01T08:43:02.834Z,7.30
2017-08-01T08:45:30.927Z,5.70
2017-08-01T08:47:59.007Z,7.27
2017-08-01T08:50:27.097Z,6.13
2017-08-01T08:52:55.162Z,5.90
2017-08-01T08:55:23.253Z,6.33
2017-08-01T08:57:51.324Z,6.40
2017-08-01T09:00:19.406Z,6.13
2017-08-01T09:02:47.479Z,6.43
2017-08-01T09:05:15.565Z,6.07
2017-08-01T09:07:43.640Z,5.63
2017-08-01T09:10:11.717Z,6.00
2017-08-01T09:12:39.807Z,5.97
2017-08-01T09:15:07.873Z,6.77
2017-08-01T09:17:35.956Z,5.40
2017-08-01T09:20:04.034Z,5.67
2017-08-01T09:22:32.120Z,5.90
2017-08-01T09:25:00.191Z,6.10
2017-08-01T09:27:28.297Z,5.23
2017-08-01T09:29:56.377Z,5.27
2017-08-01T09:32:24.448Z,4.97
2017-08-01T09:34:52.515Z,5.40
2017-08-01T09:37:20.593Z,5.70
2017-08-01T09:39:48.684Z,6.17
2017-08-01T09:42:16.755Z,5.90
2017-08-01T09:44:44.872Z,5.10
2017-08-01T09:47:12.938Z,5.50
2017-08-01T09:49:41.017Z,5.20
2017-08-01T09:52:09.102Z,5.33
2017-08-01T09:54:37.186Z,5.00
2017-08-01T09:57:05.250Z,6.60
2017-08-01T09:59:33.340Z,5.43
2017-08-01T10:02:01.425Z,5.50
2017-08-01T10:04:29.482Z,5.70
2017-08-01T10:06:57.564Z,5.20
2017-08-01T10:09:26.493Z,5.30
2017-08-01T10:11:54.563Z,5.47
2017-08-01T10:14:22.639Z,4.60
2017-08-01T10:16:50.714Z,4.87
2017-08-01T10:19:18.796Z,5.90
2017-08-01T10:21:46.882Z,5.33
2017-08-01T10:24:14.954Z,4.70
2017-08-01T10:26:43.047Z,5.53
2017-08-01T10:29:11.129Z,5.17
2017-08-01T10:31:39.213Z,5.17
2017-08-01T10:34:07.282Z,5.30
2017-08-01T10:36:35.371Z,5.60
2017-08-01T10:39:03.441Z,5.00
2017-08-01T10:41:31.538Z,5.60
2017-08-01T10:43:59.608Z,6.00
2017-08-01T10:46:27.679Z,5.00
2017-08-01T10:48:55.764Z,5.40
2017-08-01T10:51:23.834Z,5.13
2017-08-01T10:53:51.936Z,4.80
2017-08-01T10:56:20.007Z,5.40
2017-08-01T10:58:48.099Z,5.97
2017-08-01T11:01:16.179Z,4.50
2017-08-01T11:03:44.260Z,5.10
2017-08-01T11:06:12.326Z,5.77
2017-08-01T11:08:40.406Z,5.60
2017-08-01T11:11:08.479Z,5.10
2017-08-01T11:13:36.551Z,5.10
2017-08-01T11:16:04.631Z,5.33
2017-08-01T11:18:32.721Z,5.03
2017-08-01T11:21:00.814Z,5.70
2017-08-01T11:23:28.896Z,5.40
2017-08-01T11:25:56.985Z,6.40
2017-08-01T11:28:25.044Z,5.57
2017-08-01T11:30:53.140Z,5.30
2017-08-01T11:33:21.213Z,6.23
2017-08-01T11:35:49.293Z,6.03
2017-08-01T11:38:17.359Z,5.53
2017-08-01T11:40:45.445Z,4.70
2017-08-01T11:43:13.513Z,5.50
2017-08-01T11:45:41.616Z,5.40
2017-08-01T11:48:09.701Z,5.50
2017-08-01T11:50:37.794Z,5.43
2017-08-01T11:53:05.867Z,5.07
2017-08-01T11:55:33.950Z,5.10
2017-08-01T11:58:02.024Z,5.10
2017-08-01T12:00:30.095Z,5.77
2017-08-01T12:02:58.201Z,5.30
2017-08-01T12:05:26.256Z,5.40
2017-08-01T12:07:54.337Z,5.73
2017-08-01T12:10:22.458Z,5.50
2017-08-01T12:12:50.549Z,5.10
2017-08-01T12:15:18.639Z,4.80
2017-08-01T12:17:46.730Z,4.97
2017-08-01T12:20:14.801Z,5.70
2017-08-01T12:22:42.886Z,5.60
2017-08-01T12:25:10.982Z,5.03
2017-08-01T12:27:39.086Z,4.83
2017-08-01T12:30:07.175Z,5.10
2017-08-01T12:32:35.276Z,4.90
2017-08-01T12:35:03.370Z,6.07
2017-08-01T12:37:31.452Z,6.77
2017-08-01T12:39:59.527Z,5.63
2017-08-01T12:42:27.619Z,5.50
2017-08-01T12:44:55.726Z,5.70
2017-08-01T12:47:23.795Z,5.20
2017-08-01T12:49:51.889Z,5.30
2017-08-01T12:52:20.181Z,4.53
2017-08-01T12:54:48.262Z,5.50
2017-08-01T12:57:16.907Z,5.70
2017-08-01T12:59:44.992Z,5.47
2017-08-01T13:02:13.070Z,6.20
2017-08-01T13:04:41.147Z,5.43
2017-08-01T13:07:09.251Z,5.37
2017-08-01T13:09:37.327Z,5.40
2017-08-01T13:12:05.422Z,4.97
2017-08-01T13:14:33.492Z,5.20
2017-08-01T13:17:01.580Z,5.00
2017-08-01T13:19:29.664Z,5.40
2017-08-01T13:21:57.740Z,6.60
2017-08-01T13:24:25.816Z,6.23
2017-08-01T13:26:53.914Z,5.63
2017-08-01T13:29:21.987Z,5.50
2017-08-01T13:31:50.087Z,5.10
2017-08-01T13:34:18.174Z,6.00
2017-08-01T13:36:46.250Z,5.67
2017-08-01T13:39:14.337Z,6.43
2017-08-01T13:41:42.424Z,5.50
2017-08-01T13:44:10.581Z,5.10
2017-08-01T13:46:38.646Z,5.30
2017-08-01T13:49:06.739Z,5.50
2017-08-01T13:51:34.820Z,5.23
2017-08-01T13:54:02.930Z,5.67
2017-08-01T13:56:31.005Z,6.10
2017-08-01T13:58:59.086Z,5.43
2017-08-01T14:01:27.171Z,5.40
2017-08-01T14:03:55.272Z,5.67
2017-08-01T14:06:23.358Z,5.33
2017-08-01T14:08:51.439Z,5.90
2017-08-01T14:11:19.535Z,5.23
2017-08-01T14:13:47.606Z,5.77
2017-08-01T14:16:15.700Z,4.93
2017-08-01T14:18:43.771Z,5.33
2017-08-01T14:21:11.841Z,6.00
2017-08-01T14:23:40.139Z,6.10
2017-08-01T14:26:08.226Z,6.30
2017-08-01T14:28:36.299Z,6.17
2017-08-01T14:31:04.390Z,6.00
2017-08-01T14:33:32.467Z,6.23
2017-08-01T14:36:00.551Z,7.10
2017-08-01T14:38:28.634Z,6.80
2017-08-01T14:40:56.712Z,6.43
2017-08-01T14:43:24.794Z,6.80
2017-08-01T14:45:52.896Z,6.27
2017-08-01T14:48:20.961Z,5.83
2017-08-01T14:50:49.038Z,5.90
2017-08-01T14:53:17.126Z,6.90
2017-08-01T14:55:45.188Z,6.20
2017-08-01T14:58:13.275Z,5.53
2017-08-01T15:00:41.349Z,6.23
2017-08-01T15:03:09.422Z,7.50
2017-08-01T15:05:37.521Z,6.90
2017-08-01T15:08:05.601Z,6.37
2017-08-01T15:10:33.678Z,6.53
2017-08-01T15:13:01.763Z,6.10
2017-08-01T15:15:29.849Z,6.70
2017-08-01T15:17:57.915Z,6.33
2017-08-01T15:20:26.006Z,6.00
2017-08-01T15:22:54.080Z,6.50
2017-08-01T15:25:22.516Z,6.87
2017-08-01T15:27:50.587Z,6.33
2017-08-01T15:30:18.678Z,6.13
2017-08-01T15:32:46.799Z,6.50
2017-08-01T15:35:14.900Z,6.77
2017-08-01T15:37:42.967Z,6.40
2017-08-01T15:40:11.042Z,6.47
2017-08-01T15:42:39.139Z,7.17
2017-08-01T15:45:07.223Z,6.17
2017-08-01T15:47:35.304Z,5.90
2017-08-01T15:50:03.379Z,5.87
2017-08-01T15:52:31.460Z,5.97
2017-08-01T15:54:59.552Z,5.80
2017-08-01T15:57:27.636Z,5.40
2017-08-01T15:59:55.707Z,5.10
2017-08-01T16:02:23.779Z,5.43
2017-08-01T16:04:51.859Z,5.20
2017-08-01T16:07:19.945Z,5.67
2017-08-01T16:09:48.010Z,6.00
2017-08-01T16:12:16.097Z,5.27
2017-08-01T16:14:44.160Z,6.20
2017-08-01T16:17:12.232Z,6.27
2017-08-01T16:19:40.323Z,5.57
2017-08-01T16:22:08.394Z,5.73
2017-08-01T16:24:36.555Z,5.17
2017-08-01T16:27:04.641Z,5.13
2017-08-01T16:29:32.731Z,5.37
2017-08-01T16:32:00.806Z,5.83
2017-08-01T16:34:28.878Z,5.40
2017-08-01T16:36:56.971Z,6.43
2017-08-01T16:39:25.051Z,4.90
2017-08-01T16:41:53.120Z,4.67
2017-08-01T16:44:21.202Z,4.30
2017-08-01T16:46:49.272Z,4.43
2017-08-01T16:49:17.375Z,4.50
2017-08-01T16:51:45.443Z,4.83
2017-08-01T16:54:13.599Z,4.10
2017-08-01T16:56:41.688Z,4.50
2017-08-01T16:59:09.788Z,4.30
2017-08-01T17:01:37.876Z,4.40
2017-08-01T17:04:05.952Z,4.87
2017-08-01T17:06:34.033Z,4.43
2017-08-01T17:09:02.366Z,5.00
2017-08-01T17:11:30.446Z,4.77
2017-08-01T17:13:58.547Z,4.17
2017-08-01T17:16:26.627Z,3.70
2017-08-01T17:18:54.713Z,4.10
2017-08-01T17:21:22.818Z,4.43
2017-08-01T17:23:50.902Z,3.70
2017-08-01T17:26:18.975Z,3.87
2017-08-01T17:28:47.055Z,4.43
2017-08-01T17:31:15.138Z,3.47
2017-08-01T17:33:43.219Z,3.87
2017-08-01T17:36:11.292Z,3.57
2017-08-01T17:38:39.379Z,4.27
2017-08-01T17:41:07.468Z,3.80
2017-08-01T17:43:35.563Z,3.83
2017-08-01T17:46:03.640Z,4.00
2017-08-01T17:48:31.727Z,3.50
2017-08-01T17:50:59.807Z,4.20
2017-08-01T17:53:27.897Z,4.30
2017-08-01T17:55:55.968Z,3.73
2017-08-01T17:58:24.073Z,3.87
2017-08-01T18:00:52.146Z,3.70
2017-08-01T18:03:20.449Z,3.67
2017-08-01T18:05:48.580Z,4.00
2017-08-01T18:08:16.677Z,4.10
2017-08-01T18:10:44.757Z,4.10
2017-08-01T18:13:12.839Z,4.17
2017-08-01T18:15:40.918Z,3.90
2017-08-01T18:18:08.990Z,3.83
2017-08-01T18:20:37.081Z,4.57
2017-08-01T18:23:05.151Z,3.90
2017-08-01T18:25:33.238Z,4.97
2017-08-01T18:28:01.327Z,3.97
2017-08-01T18:30:29.403Z,4.23
2017-08-01T18:32:57.509Z,4.60
2017-08-01T18:35:25.591Z,4.50
2017-08-01T18:37:53.676Z,4.50
2017-08-01T18:40:21.747Z,3.90
2017-08-01T18:42:49.837Z,4.27
2017-08-01T18:45:17.907Z,4.57
2017-08-01T18:47:46.006Z,4.00
2017-08-01T18:50:14.079Z,4.70
2017-08-01T18:52:42.160Z,4.90
2017-08-01T18:55:10.248Z,4.77
2017-08-01T18:57:38.337Z,5.00
2017-08-01T19:00:06.415Z,4.73
2017-08-01T19:02:34.610Z,5.10
2017-08-01T19:05:02.875Z,4.97
2017-08-01T19:07:31.891Z,5.23
2017-08-01T19:10:00.012Z,5.03
2017-08-01T19:12:28.260Z,5.00
2017-08-01T19:14:56.352Z,4.57
2017-08-01T19:17:24.414Z,4.30
2017-08-01T19:19:52.611Z,4.87
2017-08-01T19:22:20.695Z,5.50
2017-08-01T19:24:48.941Z,5.33
2017-08-01T19:27:17.166Z,5.50
2017-08-01T19:29:45.452Z,5.53
2017-08-01T19:32:13.574Z,5.40
2017-08-01T19:34:41.830Z,4.70
2017-08-01T19:37:10.045Z,5.43
2017-08-01T19:39:38.407Z,5.30
2017-08-01T19:42:06.554Z,5.10
2017-08-01T19:44:34.995Z,5.30
2017-08-01T19:47:03.386Z,5.03
2017-08-01T19:49:31.640Z,4.50
2017-08-01T19:51:59.828Z,4.60
2017-08-01T19:54:28.035Z,5.30
2017-08-01T19:56:56.500Z,4.60
2017-08-01T19:59:24.692Z,4.53
2017-08-01T20:01:52.761Z,4.33
2017-08-01T20:04:21.128Z,4.50
2017-08-01T20:06:49.283Z,5.80
2017-08-01T20:09:17.424Z,5.30
2017-08-01T20:11:45.494Z,6.30
2017-08-01T20:14:13.562Z,5.20
2017-08-01T20:16:41.651Z,4.67
2017-08-01T20:19:10.618Z,4.50
2017-08-01T20:21:38.929Z,5.23
2017-08-01T20:24:07.251Z,5.37
2017-08-01T20:26:35.364Z,4.57
2017-08-01T20:29:03.531Z,5.40
2017-08-01T20:31:31.711Z,5.07
2017-08-01T20:34:01.511Z,5.57
2017-08-01T20:36:29.792Z,6.30
2017-08-01T20:38:58.072Z,6.10
2017-08-01T20:41:26.214Z,4.77
2017-08-01T20:43:54.400Z,5.00
2017-08-01T20:46:22.475Z,5.57
2017-08-01T20:48:50.760Z,5.20
2017-08-01T20:51:18.863Z,5.57
2017-08-01T20:53:46.948Z,4.83
2017-08-01T20:56:15.027Z,5.13
2017-08-01T20:58:43.131Z,6.57
2017-08-01T21:01:11.208Z,6.20
2017-08-01T21:03:39.315Z,6.40
2017-08-01T21:06:07.396Z,6.83
2017-08-01T21:08:35.457Z,6.73
2017-08-01T21:11:03.559Z,7.00
2017-08-01T21:13:31.977Z,6.80
2017-08-01T21:16:00.438Z,7.23
2017-08-01T21:18:29.613Z,8.13
2017-08-01T21:20:57.774Z,8.27
2017-08-01T21:23:25.842Z,8.40
2017-08-01T21:25:54.042Z,8.40
2017-08-01T21:28:22.127Z,7.30
2017-08-01T21:30:50.209Z,6.80
2017-08-01T21:33:18.459Z,8.67
2017-08-01T21:35:46.727Z,8.00
2017-08-01T21:38:15.007Z,10.00
2017-08-01T21:40:43.286Z,6.70
2017-08-01T21:43:11.551Z,6.50
2017-08-01T21:45:39.633Z,8.00
2017-08-01T21:48:07.775Z,6.40
2017-08-01T21:50:35.847Z,8.63
2017-08-01T21:53:03.927Z,6.90
2017-08-01T21:55:32.110Z,8.40
2017-08-01T21:58:00.271Z,7.87
2017-08-01T22:00:28.357Z,8.83
2017-08-01T22:02:56.439Z,9.97
2017-08-01T22:05:25.439Z,10.27
2017-08-01T22:07:53.586Z,11.33
2017-08-01T22:10:21.669Z,8.13
2017-08-01T22:12:49.863Z,10.07
2017-08-01T22:15:17.952Z,12.47
2017-08-01T22:17:46.027Z,11.50
2017-08-01T22:20:14.119Z,12.03
2017-08-01T22:22:42.209Z,13.80
2017-08-01T22:25:10.293Z,12.70
2017-08-01T22:27:39.275Z,13.63
2017-08-01T22:30:07.465Z,12.60
2017-08-01T22:32:36.311Z,12.60
2017-08-01T22:35:04.471Z,12.27
2017-08-01T22:37:32.555Z,14.60
2017-08-01T22:40:00.659Z,12.93
2017-08-01T22:42:28.745Z,12.80
2017-08-01T22:44:56.855Z,10.73
2017-08-01T22:47:25.073Z,11.70
2017-08-01T22:49:53.340Z,12.60
2017-08-01T22:52:21.614Z,12.23
2017-08-01T22:54:49.690Z,10.20
2017-08-01T22:57:17.843Z,9.10
2017-08-01T22:59:45.918Z,10.77
2017-08-01T23:02:13.999Z,8.80
2017-08-01T23:04:42.166Z,10.10
2017-08-01T23:07:10.257Z,9.07
2017-08-01T23:09:38.376Z,7.90
2017-08-01T23:12:06.455Z,9.13
2017-08-01T23:14:34.659Z,9.50
2017-08-01T23:17:02.746Z,9.40
2017-08-01T23:19:30.875Z,9.50
2017-08-01T23:21:59.062Z,9.70
2017-08-01T23:24:27.341Z,8.70
2017-08-01T23:26:55.614Z,9.40
2017-08-01T23:29:23.699Z,9.27
2017-08-01T23:31:51.839Z,9.93
2017-08-01T23:34:19.939Z,10.63
2017-08-01T23:36:48.795Z,11.73
2017-08-01T23:39:16.992Z,11.50
2017-08-01T23:41:45.268Z,10.17
2017-08-01T23:44:13.359Z,9.70
2017-08-01T23:46:41.428Z,9.17
2017-08-01T23:49:09.510Z,8.53
2017-08-01T23:51:37.580Z,9.87
2017-08-01T23:54:05.828Z,10.47
2017-08-01T23:56:34.100Z,9.37
2017-08-01T23:59:02.172Z,12.87
